sensor_id;sensor_type;location;lat;lon;timestamp;pressure;altitude;pressure_sealevel;temperature;humidity
11001;BME280;5553;48.506;8.870;2023-01-25T00:01:39;98169.88;;;0.08;100.00
11001;BME280;5553;48.506;8.870;2023-01-25T00:04:18;98159.34;;;0.11;100.00
11001;BME280;5553;48.506;8.870;2023-01-25T00:06:46;98164.03;;;0.04;100.00
11001;BME280;5553;48.506;8.870;2023-01-25T00:09:16;98150.03;;;0.07;100.00
11001;BME280;5553;48.506;8.870;2023-01-25T00:11:47;98153.72;;;0.03;100.00
11001;BME280;5553;48.506;8.870;2023-01-25T00:14:15;98153.56;;;0.06;100.00
11001;BME280;5553;48.506;8.870;2023-01-25T00:16:44;98153.56;;;0.06;100.00
11001;BME280;5553;48.506;8.870;2023-01-25T00:19:12;98158.75;;;0.06;100.00
11001;BME280;5553;48.506;8.870;2023-01-25T00:21:40;98146.69;;;0.05;100.00
11001;BME280;5553;48.506;8.870;2023-01-25T00:24:09;98145.03;;;0.04;100.00
11001;BME280;5553;48.506;8.870;2023-01-25T00:26:39;98133.88;;;0.02;100.00
11001;BME280;5553;48.506;8.870;2023-01-25T00:29:12;98138.91;;;0.05;100.00
11001;BME280;5553;48.506;8.870;2023-01-25T00:31:48;98130.28;;;0.04;100.00
11001;BME280;5553;48.506;8.870;2023-01-25T00:34:48;98121.47;;;0.07;100.00
11001;BME280;5553;48.506;8.870;2023-01-25T00:37:23;98117.31;;;0.04;100.00
11001;BME280;5553;48.506;8.870;2023-01-25T00:39:52;98123.25;;;0.06;100.00
11001;BME280;5553;48.506;8.870;2023-01-25T00:42:20;98128.88;;;-0.02;100.00
11001;BME280;5553;48.506;8.870;2023-01-25T00:44:51;98136.47;;;0.02;100.00
11001;BME280;5553;48.506;8.870;2023-01-25T00:47:20;98133.56;;;0.08;100.00
11001;BME280;5553;48.506;8.870;2023-01-25T00:49:48;98128.25;;;0.09;100.00
11001;BME280;5553;48.506;8.870;2023-01-25T00:52:16;98142.66;;;-0.01;100.00
11001;BME280;5553;48.506;8.870;2023-01-25T00:54:46;98139.63;;;0.07;100.00
11001;BME280;5553;48.506;8.870;2023-01-25T00:57:14;98132.78;;;0.06;100.00
11001;BME280;5553;48.506;8.870;2023-01-25T00:59:42;98122.06;;;0.12;100.00
11001;BME280;5553;48.506;8.870;2023-01-25T01:02:14;98132.13;;;0.02;100.00
11001;BME280;5553;48.506;8.870;2023-01-25T01:04:42;98129.25;;;0.07;100.00
11001;BME280;5553;48.506;8.870;2023-01-25T01:07:12;98128.19;;;0.11;100.00
11001;BME280;5553;48.506;8.870;2023-01-25T01:09:40;98126.75;;;0.05;100.00
11001;BME280;5553;48.506;8.870;2023-01-25T01:12:09;98127.88;;;0.01;100.00
11001;BME280;5553;48.506;8.870;2023-01-25T01:14:37;98122.22;;;0.09;100.00
11001;BME280;5553;48.506;8.870;2023-01-25T01:17:06;98129.63;;;0.01;100.00
11001;BME280;5553;48.506;8.870;2023-01-25T01:19:37;98120.91;;;0.02;100.00
11001;BME280;5553;48.506;8.870;2023-01-25T01:22:05;98124.44;;;0.01;100.00
11001;BME280;5553;48.506;8.870;2023-01-25T01:24:33;98123.06;;;0.09;100.00
11001;BME280;5553;48.506;8.870;2023-01-25T01:27:02;98123.91;;;0.10;100.00
11001;BME280;5553;48.506;8.870;2023-01-25T01:29:30;98124.28;;;0.04;100.00
11001;BME280;5553;48.506;8.870;2023-01-25T01:31:58;98128.34;;;0.08;100.00
11001;BME280;5553;48.506;8.870;2023-01-25T01:34:27;98127.59;;;0.06;100.00
11001;BME280;5553;48.506;8.870;2023-01-25T01:36:58;98121.00;;;0.00;100.00
11001;BME280;5553;48.506;8.870;2023-01-25T01:39:26;98125.28;;;0.01;100.00
11001;BME280;5553;48.506;8.870;2023-01-25T01:41:54;98115.72;;;0.02;100.00
11001;BME280;5553;48.506;8.870;2023-01-25T01:44:44;98124.00;;;0.08;100.00
11001;BME280;5553;48.506;8.870;2023-01-25T01:47:17;98122.69;;;0.01;100.00
11001;BME280;5553;48.506;8.870;2023-01-25T01:49:50;98115.81;;;0.00;100.00
11001;BME280;5553;48.506;8.870;2023-01-25T01:52:24;98116.22;;;0.08;100.00
11001;BME280;5553;48.506;8.870;2023-01-25T01:54:57;98119.47;;;0.12;100.00
11001;BME280;5553;48.506;8.870;2023-01-25T01:57:31;98114.78;;;0.03;100.00
11001;BME280;5553;48.506;8.870;2023-01-25T02:00:03;98109.91;;;0.12;100.00
11001;BME280;5553;48.506;8.870;2023-01-25T02:02:33;98118.72;;;0.10;100.00
11001;BME280;5553;48.506;8.870;2023-01-25T02:05:04;98117.31;;;0.04;100.00
11001;BME280;5553;48.506;8.870;2023-01-25T02:07:37;98122.91;;;0.12;100.00
11001;BME280;5553;48.506;8.870;2023-01-25T02:10:09;98123.91;;;0.10;100.00
11001;BME280;5553;48.506;8.870;2023-01-25T02:12:38;98117.31;;;0.04;100.00
11001;BME280;5553;48.506;8.870;2023-01-25T02:15:09;98117.97;;;0.08;100.00
11001;BME280;5553;48.506;8.870;2023-01-25T02:17:38;98112.69;;;0.09;100.00
11001;BME280;5553;48.506;8.870;2023-01-25T02:20:15;98127.44;;;0.09;100.00
11001;BME280;5553;48.506;8.870;2023-01-25T02:22:53;98129.75;;;0.13;100.00
11001;BME280;5553;48.506;8.870;2023-01-25T02:25:27;98128.91;;;0.13;100.00
11001;BME280;5553;48.506;8.870;2023-01-25T02:27:59;98118.63;;;0.11;100.00
11001;BME280;5553;48.506;8.870;2023-01-25T02:30:31;98111.75;;;0.10;100.00
11001;BME280;5553;48.506;8.870;2023-01-25T02:32:59;98119.91;;;0.04;100.00
11001;BME280;5553;48.506;8.870;2023-01-25T02:35:37;98115.03;;;0.14;100.00
11001;BME280;5553;48.506;8.870;2023-01-25T02:38:06;98113.78;;;0.05;100.00
11001;BME280;5553;48.506;8.870;2023-01-25T02:40:44;98114.44;;;0.09;100.00
11001;BME280;5553;48.506;8.870;2023-01-25T02:43:14;98109.84;;;0.14;100.00
11001;BME280;5553;48.506;8.870;2023-01-25T02:45:44;98108.91;;;0.15;100.00
11001;BME280;5553;48.506;8.870;2023-01-25T02:48:14;98114.84;;;0.17;100.00
11001;BME280;5553;48.506;8.870;2023-01-25T02:50:42;98102.06;;;0.14;100.00
11001;BME280;5553;48.506;8.870;2023-01-25T02:53:11;98095.09;;;0.14;100.00
11001;BME280;5553;48.506;8.870;2023-01-25T02:55:41;98093.59;;;0.10;100.00
11001;BME280;5553;48.506;8.870;2023-01-25T02:58:10;98094.06;;;0.17;100.00
11001;BME280;5553;48.506;8.870;2023-01-25T03:00:38;98098.03;;;0.08;100.00
11001;BME280;5553;48.506;8.870;2023-01-25T03:03:06;98088.22;;;0.13;100.00
11001;BME280;5553;48.506;8.870;2023-01-25T03:05:34;98090.81;;;0.13;100.00
11001;BME280;5553;48.506;8.870;2023-01-25T03:08:03;98094.16;;;0.15;100.00
11001;BME280;5553;48.506;8.870;2023-01-25T03:10:31;98085.56;;;0.15;100.00
11001;BME280;5553;48.506;8.870;2023-01-25T03:13:02;98090.56;;;0.18;100.00
11001;BME280;5553;48.506;8.870;2023-01-25T03:15:30;98089.31;;;0.09;100.00
11001;BME280;5553;48.506;8.870;2023-01-25T03:17:59;98084.34;;;0.20;100.00
11001;BME280;5553;48.506;8.870;2023-01-25T03:20:27;98077.59;;;0.18;100.00
11001;BME280;5553;48.506;8.870;2023-01-25T03:22:55;98073.56;;;0.12;100.00
11001;BME280;5553;48.506;8.870;2023-01-25T03:25:24;98075.00;;;0.18;100.00
11001;BME280;5553;48.506;8.870;2023-01-25T03:27:52;98069.81;;;0.18;100.00
11001;BME280;5553;48.506;8.870;2023-01-25T03:30:23;98059.50;;;0.16;100.00
11001;BME280;5553;48.506;8.870;2023-01-25T03:32:51;98052.06;;;0.10;100.00
11001;BME280;5553;48.506;8.870;2023-01-25T03:35:20;98055.13;;;0.17;100.00
11001;BME280;5553;48.506;8.870;2023-01-25T03:37:48;98047.44;;;0.15;100.00
11001;BME280;5553;48.506;8.870;2023-01-25T03:40:16;98049.94;;;0.17;100.00
11001;BME280;5553;48.506;8.870;2023-01-25T03:42:45;98040.66;;;0.13;100.00
11001;BME280;5553;48.506;8.870;2023-01-25T03:45:13;98044.19;;;0.12;100.00
11001;BME280;5553;48.506;8.870;2023-01-25T03:47:44;98034.94;;;0.22;100.00
11001;BME280;5553;48.506;8.870;2023-01-25T03:50:12;98034.94;;;0.22;100.00
11001;BME280;5553;48.506;8.870;2023-01-25T03:52:41;98030.75;;;0.19;100.00
11001;BME280;5553;48.506;8.870;2023-01-25T03:55:11;98031.59;;;0.20;100.00
11001;BME280;5553;48.506;8.870;2023-01-25T03:57:40;98031.59;;;0.20;100.00
11001;BME280;5553;48.506;8.870;2023-01-25T04:00:10;98029.47;;;0.27;100.00
11001;BME280;5553;48.506;8.870;2023-01-25T04:02:38;98027.53;;;0.30;100.00
11001;BME280;5553;48.506;8.870;2023-01-25T04:05:10;98025.50;;;0.21;100.00
11001;BME280;5553;48.506;8.870;2023-01-25T04:07:38;98023.97;;;0.17;100.00
11001;BME280;5553;48.506;8.870;2023-01-25T04:10:08;98021.84;;;0.23;100.00
11001;BME280;5553;48.506;8.870;2023-01-25T04:12:36;98020.47;;;0.18;100.00
11001;BME280;5553;48.506;8.870;2023-01-25T04:15:06;98020.84;;;0.26;100.00
11001;BME280;5553;48.506;8.870;2023-01-25T04:17:35;98012.03;;;0.14;100.00
11001;BME280;5553;48.506;8.870;2023-01-25T04:20:04;98025.09;;;0.27;100.00
11001;BME280;5553;48.506;8.870;2023-01-25T04:22:35;98012.59;;;0.19;100.00
11001;BME280;5553;48.506;8.870;2023-01-25T04:25:04;98016.00;;;0.20;100.00
11001;BME280;5553;48.506;8.870;2023-01-25T04:27:33;98011.66;;;0.20;100.00
11001;BME280;5553;48.506;8.870;2023-01-25T04:30:01;98010.16;;;0.16;100.00
11001;BME280;5553;48.506;8.870;2023-01-25T04:32:29;98018.53;;;0.21;100.00
11001;BME280;5553;48.506;8.870;2023-01-25T04:34:58;98014.19;;;0.22;100.00
11001;BME280;5553;48.506;8.870;2023-01-25T04:37:26;98003.41;;;0.14;100.00
11001;BME280;5553;48.506;8.870;2023-01-25T04:39:57;97999.78;;;0.16;100.00
11001;BME280;5553;48.506;8.870;2023-01-25T04:42:25;97999.97;;;0.13;100.00
11001;BME280;5553;48.506;8.870;2023-01-25T04:44:53;98006.00;;;0.14;100.00
11001;BME280;5553;48.506;8.870;2023-01-25T04:47:22;98008.41;;;0.17;100.00
11001;BME280;5553;48.506;8.870;2023-01-25T04:49:50;98006.00;;;0.14;100.00
11001;BME280;5553;48.506;8.870;2023-01-25T04:52:18;97999.88;;;0.15;100.00
11001;BME280;5553;48.506;8.870;2023-01-25T04:54:47;97990.44;;;0.14;100.00
11001;BME280;5553;48.506;8.870;2023-01-25T04:57:17;98000.81;;;0.14;100.00
11001;BME280;5553;48.506;8.870;2023-01-25T04:59:46;97998.13;;;0.15;100.00
11001;BME280;5553;48.506;8.870;2023-01-25T05:02:14;97999.31;;;0.10;100.00
11001;BME280;5553;48.506;8.870;2023-01-25T05:04:42;98003.59;;;0.25;100.00
11001;BME280;5553;48.506;8.870;2023-01-25T05:07:11;97998.41;;;0.11;100.00
11001;BME280;5553;48.506;8.870;2023-01-25T05:09:39;97995.06;;;0.23;100.00
11001;BME280;5553;48.506;8.870;2023-01-25T05:12:07;97989.41;;;0.16;100.00
11001;BME280;5553;48.506;8.870;2023-01-25T05:14:40;97987.56;;;0.18;100.00
11001;BME280;5553;48.506;8.870;2023-01-25T05:17:08;98000.25;;;0.23;100.00
11001;BME280;5553;48.506;8.870;2023-01-25T05:19:37;97983.38;;;0.16;100.00
11001;BME280;5553;48.506;8.870;2023-01-25T05:22:05;97983.19;;;0.19;100.00
11001;BME280;5553;48.506;8.870;2023-01-25T11:18:52;97983.19;;;0.19;100.00
11001;BME280;5553;48.506;8.870;2023-01-25T11:21:22;97983.19;;;0.19;100.00
11001;BME280;5553;48.506;8.870;2023-01-25T11:23:59;98053.78;;;-143.43;100.00
11001;BME280;5553;48.506;8.870;2023-01-25T11:26:29;76305.66;;;-144.39;100.00
11001;BME280;5553;48.506;8.870;2023-01-25T11:29:10;49402.53;;;-144.39;100.00
11001;BME280;5553;48.506;8.870;2023-01-25T11:31:40;61598.09;;;-144.39;100.00
11001;BME280;5553;48.506;8.870;2023-01-25T11:34:15;61598.09;;;-144.39;100.00
11001;BME280;5553;48.506;8.870;2023-01-25T11:36:59;61598.09;;;-144.39;100.00
11001;BME280;5553;48.506;8.870;2023-01-25T11:39:41;61598.09;;;-144.39;100.00
11001;BME280;5553;48.506;8.870;2023-01-25T11:42:22;61598.09;;;-144.39;100.00
11001;BME280;5553;48.506;8.870;2023-01-25T11:48:04;61598.09;;;-144.39;100.00
11001;BME280;5553;48.506;8.870;2023-01-25T11:50:43;61598.09;;;-144.39;100.00
11001;BME280;5553;48.506;8.870;2023-01-25T11:53:32;61598.09;;;-144.39;100.00
11001;BME280;5553;48.506;8.870;2023-01-25T11:56:08;61598.09;;;-144.39;100.00
11001;BME280;5553;48.506;8.870;2023-01-25T11:58:52;61598.09;;;-144.39;100.00
11001;BME280;5553;48.506;8.870;2023-01-25T12:01:30;61598.09;;;-144.39;100.00
11001;BME280;5553;48.506;8.870;2023-01-25T12:07:13;61598.09;;;-144.39;100.00
11001;BME280;5553;48.506;8.870;2023-01-25T12:09:52;61598.09;;;-144.39;100.00
11001;BME280;5553;48.506;8.870;2023-01-25T12:12:37;61598.09;;;-144.39;100.00
11001;BME280;5553;48.506;8.870;2023-01-25T12:15:31;61598.09;;;-144.39;100.00
11001;BME280;5553;48.506;8.870;2023-01-25T12:18:16;61598.09;;;-144.39;100.00
11001;BME280;5553;48.506;8.870;2023-01-25T12:21:02;61598.09;;;-144.39;100.00
11001;BME280;5553;48.506;8.870;2023-01-25T12:26:34;61598.09;;;-144.39;100.00
11001;BME280;5553;48.506;8.870;2023-01-25T12:29:15;61598.09;;;-144.39;100.00
11001;BME280;5553;48.506;8.870;2023-01-25T12:31:50;61598.09;;;-144.39;100.00
11001;BME280;5553;48.506;8.870;2023-01-25T12:34:25;61598.09;;;-144.39;100.00
11001;BME280;5553;48.506;8.870;2023-01-25T12:36:59;61598.09;;;-144.39;100.00
11001;BME280;5553;48.506;8.870;2023-01-25T12:39:39;61598.09;;;-144.39;100.00
11001;BME280;5553;48.506;8.870;2023-01-25T12:42:14;61598.09;;;-144.39;100.00
11001;BME280;5553;48.506;8.870;2023-01-25T12:44:48;61598.09;;;-144.39;100.00
11001;BME280;5553;48.506;8.870;2023-01-25T12:47:22;61598.09;;;-144.39;100.00
11001;BME280;5553;48.506;8.870;2023-01-25T12:49:54;61598.09;;;-144.39;100.00
11001;BME280;5553;48.506;8.870;2023-01-25T12:52:29;61598.09;;;-144.39;100.00
11001;BME280;5553;48.506;8.870;2023-01-25T12:55:03;61598.09;;;-144.39;100.00
11001;BME280;5553;48.506;8.870;2023-01-25T12:57:35;61598.09;;;-144.39;100.00
11001;BME280;5553;48.506;8.870;2023-01-25T13:00:16;61598.09;;;-144.39;100.00
11001;BME280;5553;48.506;8.870;2023-01-25T13:05:52;61598.09;;;-144.39;100.00
11001;BME280;5553;48.506;8.870;2023-01-25T13:08:34;61598.09;;;-144.39;100.00
11001;BME280;5553;48.506;8.870;2023-01-25T13:11:15;61598.09;;;-144.39;100.00
11001;BME280;5553;48.506;8.870;2023-01-25T13:13:45;61598.09;;;-144.39;100.00
11001;BME280;5553;48.506;8.870;2023-01-25T13:16:32;61598.09;;;-144.39;100.00
11001;BME280;5553;48.506;8.870;2023-01-25T13:19:02;61598.09;;;-144.39;100.00
11001;BME280;5553;48.506;8.870;2023-01-25T13:21:38;61598.09;;;-144.39;100.00
11001;BME280;5553;48.506;8.870;2023-01-25T13:24:18;61598.09;;;-144.39;100.00
11001;BME280;5553;48.506;8.870;2023-01-25T13:26:59;61598.09;;;-144.39;100.00
11001;BME280;5553;48.506;8.870;2023-01-25T13:29:55;61598.09;;;-144.39;100.00
11001;BME280;5553;48.506;8.870;2023-01-25T13:32:53;61598.09;;;-144.39;100.00
11001;BME280;5553;48.506;8.870;2023-01-25T13:35:27;61598.09;;;-144.39;100.00
11001;BME280;5553;48.506;8.870;2023-01-25T13:41:10;61598.09;;;-144.39;100.00
11001;BME280;5553;48.506;8.870;2023-01-25T13:43:46;61598.09;;;-144.39;100.00
11001;BME280;5553;48.506;8.870;2023-01-25T13:46:18;61598.09;;;-144.39;100.00
11001;BME280;5553;48.506;8.870;2023-01-25T13:49:00;61598.09;;;-144.39;100.00
11001;BME280;5553;48.506;8.870;2023-01-25T13:51:33;61598.09;;;-144.39;100.00
11001;BME280;5553;48.506;8.870;2023-01-25T13:54:04;61598.09;;;-144.39;100.00
11001;BME280;5553;48.506;8.870;2023-01-25T13:56:34;61598.09;;;-144.39;100.00
11001;BME280;5553;48.506;8.870;2023-01-25T13:59:05;61598.09;;;-144.39;100.00
11001;BME280;5553;48.506;8.870;2023-01-25T14:01:35;61598.09;;;-144.39;100.00
11001;BME280;5553;48.506;8.870;2023-01-25T14:04:04;61598.09;;;-144.39;100.00
11001;BME280;5553;48.506;8.870;2023-01-25T14:06:33;61598.09;;;-144.39;100.00
11001;BME280;5553;48.506;8.870;2023-01-25T14:09:05;61598.09;;;-144.39;100.00
11001;BME280;5553;48.506;8.870;2023-01-25T14:11:43;61598.09;;;-144.39;100.00
11001;BME280;5553;48.506;8.870;2023-01-25T14:14:20;61598.09;;;-144.39;100.00
11001;BME280;5553;48.506;8.870;2023-01-25T14:17:14;61598.09;;;-144.39;100.00
11001;BME280;5553;48.506;8.870;2023-01-25T14:19:45;61598.09;;;-144.39;100.00
11001;BME280;5553;48.506;8.870;2023-01-25T14:22:23;61598.09;;;-144.39;100.00
11001;BME280;5553;48.506;8.870;2023-01-25T14:25:11;61598.09;;;-144.39;100.00
11001;BME280;5553;48.506;8.870;2023-01-25T14:27:42;61598.09;;;-144.39;100.00
11001;BME280;5553;48.506;8.870;2023-01-25T14:30:19;61598.09;;;-144.39;100.00
11001;BME280;5553;48.506;8.870;2023-01-25T14:32:49;61598.09;;;-144.39;100.00
11001;BME280;5553;48.506;8.870;2023-01-25T14:38:22;61598.09;;;-144.39;100.00
11001;BME280;5553;48.506;8.870;2023-01-25T14:40:53;61598.09;;;-144.39;100.00
11001;BME280;5553;48.506;8.870;2023-01-25T14:43:23;61598.09;;;-144.39;100.00
11001;BME280;5553;48.506;8.870;2023-01-25T14:45:55;61598.09;;;-144.39;100.00
11001;BME280;5553;48.506;8.870;2023-01-25T14:48:37;61598.09;;;-144.39;100.00
11001;BME280;5553;48.506;8.870;2023-01-25T14:51:16;61598.09;;;-144.39;100.00
11001;BME280;5553;48.506;8.870;2023-01-25T14:53:48;61598.09;;;-144.39;100.00
11001;BME280;5553;48.506;8.870;2023-01-25T14:56:39;61598.09;;;-144.39;100.00
11001;BME280;5553;48.506;8.870;2023-01-25T14:59:33;61598.09;;;-144.39;100.00
11001;BME280;5553;48.506;8.870;2023-01-25T15:02:16;61598.09;;;-144.39;100.00
11001;BME280;5553;48.506;8.870;2023-01-25T15:04:54;61598.09;;;-144.39;100.00
11001;BME280;5553;48.506;8.870;2023-01-25T15:07:41;61598.09;;;-144.39;100.00
11001;BME280;5553;48.506;8.870;2023-01-25T15:16:32;61598.09;;;-144.39;100.00
11001;BME280;5553;48.506;8.870;2023-01-25T15:19:03;61598.09;;;-144.39;100.00
11001;BME280;5553;48.506;8.870;2023-01-25T15:21:32;61598.09;;;-144.39;100.00
11001;BME280;5553;48.506;8.870;2023-01-25T15:24:02;61598.09;;;-144.39;100.00
11001;BME280;5553;48.506;8.870;2023-01-25T15:26:34;61598.09;;;-144.39;100.00
11001;BME280;5553;48.506;8.870;2023-01-25T15:29:07;61598.09;;;-144.39;100.00
11001;BME280;5553;48.506;8.870;2023-01-25T15:31:39;61598.09;;;-144.39;100.00
11001;BME280;5553;48.506;8.870;2023-01-25T15:34:14;61598.09;;;-144.39;100.00
11001;BME280;5553;48.506;8.870;2023-01-25T15:36:43;61598.09;;;-144.39;100.00
11001;BME280;5553;48.506;8.870;2023-01-25T15:39:13;61598.09;;;-144.39;100.00
11001;BME280;5553;48.506;8.870;2023-01-25T15:41:42;61598.09;;;-144.39;100.00
11001;BME280;5553;48.506;8.870;2023-01-25T15:44:11;61598.09;;;-144.39;100.00
11001;BME280;5553;48.506;8.870;2023-01-25T15:46:42;61598.09;;;-144.39;100.00
11001;BME280;5553;48.506;8.870;2023-01-25T15:49:16;61598.09;;;-144.39;100.00
11001;BME280;5553;48.506;8.870;2023-01-25T15:51:45;61598.09;;;-144.39;100.00
11001;BME280;5553;48.506;8.870;2023-01-25T15:54:14;61598.09;;;-144.39;100.00
11001;BME280;5553;48.506;8.870;2023-01-25T15:56:42;61598.09;;;-144.39;100.00
11001;BME280;5553;48.506;8.870;2023-01-25T15:59:15;61598.09;;;-144.39;100.00
11001;BME280;5553;48.506;8.870;2023-01-25T16:01:44;61598.09;;;-144.39;100.00
11001;BME280;5553;48.506;8.870;2023-01-25T16:04:15;61598.09;;;-144.39;100.00
11001;BME280;5553;48.506;8.870;2023-01-25T16:06:46;61598.09;;;-144.39;100.00
11001;BME280;5553;48.506;8.870;2023-01-25T16:09:17;61598.09;;;-144.39;100.00
11001;BME280;5553;48.506;8.870;2023-01-25T16:11:47;61598.09;;;-144.39;100.00
11001;BME280;5553;48.506;8.870;2023-01-25T16:14:17;61598.09;;;-144.39;100.00
11001;BME280;5553;48.506;8.870;2023-01-25T16:16:49;61598.09;;;-144.39;100.00
11001;BME280;5553;48.506;8.870;2023-01-25T16:19:22;61598.09;;;-144.39;100.00
11001;BME280;5553;48.506;8.870;2023-01-25T16:21:51;61598.09;;;-144.39;100.00
11001;BME280;5553;48.506;8.870;2023-01-25T16:24:19;61598.09;;;-144.39;100.00
11001;BME280;5553;48.506;8.870;2023-01-25T16:26:49;61598.09;;;-144.39;100.00
11001;BME280;5553;48.506;8.870;2023-01-25T16:29:19;61598.09;;;-144.39;100.00
11001;BME280;5553;48.506;8.870;2023-01-25T16:31:47;61598.09;;;-144.39;100.00
11001;BME280;5553;48.506;8.870;2023-01-25T16:34:16;61598.09;;;-144.39;100.00
11001;BME280;5553;48.506;8.870;2023-01-25T16:36:47;61598.09;;;-144.39;100.00
11001;BME280;5553;48.506;8.870;2023-01-25T16:39:18;61598.09;;;-144.39;100.00
11001;BME280;5553;48.506;8.870;2023-01-25T16:41:47;61598.09;;;-144.39;100.00
11001;BME280;5553;48.506;8.870;2023-01-25T16:44:16;61598.09;;;-144.39;100.00
11001;BME280;5553;48.506;8.870;2023-01-25T16:46:45;61598.09;;;-144.39;100.00
11001;BME280;5553;48.506;8.870;2023-01-25T16:49:17;61598.09;;;-144.39;100.00
11001;BME280;5553;48.506;8.870;2023-01-25T16:51:49;61598.09;;;-144.39;100.00
11001;BME280;5553;48.506;8.870;2023-01-25T16:54:18;61598.09;;;-144.39;100.00
11001;BME280;5553;48.506;8.870;2023-01-25T16:56:48;61598.09;;;-144.39;100.00
11001;BME280;5553;48.506;8.870;2023-01-25T16:59:17;61598.09;;;-144.39;100.00
11001;BME280;5553;48.506;8.870;2023-01-25T17:01:46;61598.09;;;-144.39;100.00
11001;BME280;5553;48.506;8.870;2023-01-25T17:04:15;61598.09;;;-144.39;100.00
11001;BME280;5553;48.506;8.870;2023-01-25T17:06:45;61598.09;;;-144.39;100.00
11001;BME280;5553;48.506;8.870;2023-01-25T17:09:18;61598.09;;;-144.39;100.00
11001;BME280;5553;48.506;8.870;2023-01-25T17:11:48;61598.09;;;-144.39;100.00
11001;BME280;5553;48.506;8.870;2023-01-25T17:14:17;61598.09;;;-144.39;100.00
11001;BME280;5553;48.506;8.870;2023-01-25T17:16:46;61598.09;;;-144.39;100.00
11001;BME280;5553;48.506;8.870;2023-01-25T17:19:17;61598.09;;;-144.39;100.00
11001;BME280;5553;48.506;8.870;2023-01-25T17:21:46;61598.09;;;-144.39;100.00
11001;BME280;5553;48.506;8.870;2023-01-25T17:24:19;61598.09;;;-144.39;100.00
11001;BME280;5553;48.506;8.870;2023-01-25T17:26:48;61598.09;;;-144.39;100.00
11001;BME280;5553;48.506;8.870;2023-01-25T17:29:16;61598.09;;;-144.39;100.00
11001;BME280;5553;48.506;8.870;2023-01-25T17:31:46;61598.09;;;-144.39;100.00
11001;BME280;5553;48.506;8.870;2023-01-25T17:34:15;61598.09;;;-144.39;100.00
11001;BME280;5553;48.506;8.870;2023-01-25T17:36:46;61598.09;;;-144.39;100.00
11001;BME280;5553;48.506;8.870;2023-01-25T17:39:19;61598.09;;;-144.39;100.00
11001;BME280;5553;48.506;8.870;2023-01-25T17:41:49;61598.09;;;-144.39;100.00
11001;BME280;5553;48.506;8.870;2023-01-25T17:44:18;61598.09;;;-144.39;100.00
11001;BME280;5553;48.506;8.870;2023-01-25T17:46:48;61598.09;;;-144.39;100.00
11001;BME280;5553;48.506;8.870;2023-01-25T17:49:17;61598.09;;;-144.39;100.00
11001;BME280;5553;48.506;8.870;2023-01-25T17:51:46;61598.09;;;-144.39;100.00
11001;BME280;5553;48.506;8.870;2023-01-25T17:54:17;61598.09;;;-144.39;100.00
11001;BME280;5553;48.506;8.870;2023-01-25T17:56:45;61598.09;;;-144.39;100.00
11001;BME280;5553;48.506;8.870;2023-01-25T17:59:14;61598.09;;;-144.39;100.00
11001;BME280;5553;48.506;8.870;2023-01-25T18:01:42;61598.09;;;-144.39;100.00
11001;BME280;5553;48.506;8.870;2023-01-25T18:04:10;61598.09;;;-144.39;100.00
11001;BME280;5553;48.506;8.870;2023-01-25T18:06:42;61598.09;;;-144.39;100.00
11001;BME280;5553;48.506;8.870;2023-01-25T18:09:10;61598.09;;;-144.39;100.00
11001;BME280;5553;48.506;8.870;2023-01-25T18:11:41;61598.09;;;-144.39;100.00
11001;BME280;5553;48.506;8.870;2023-01-25T18:14:11;61598.09;;;-144.39;100.00
11001;BME280;5553;48.506;8.870;2023-01-25T18:16:41;61598.09;;;-144.39;100.00
11001;BME280;5553;48.506;8.870;2023-01-25T18:19:10;61598.09;;;-144.39;100.00
11001;BME280;5553;48.506;8.870;2023-01-25T18:21:38;61598.09;;;-144.39;100.00
11001;BME280;5553;48.506;8.870;2023-01-25T18:24:23;61598.09;;;-144.39;100.00
11001;BME280;5553;48.506;8.870;2023-01-25T18:26:59;61598.09;;;-144.39;100.00
11001;BME280;5553;48.506;8.870;2023-01-25T18:29:44;61598.09;;;-144.39;100.00
11001;BME280;5553;48.506;8.870;2023-01-25T18:32:13;61598.09;;;-144.39;100.00
11001;BME280;5553;48.506;8.870;2023-01-25T18:34:41;61598.09;;;-144.39;100.00
11001;BME280;5553;48.506;8.870;2023-01-25T18:37:11;61598.09;;;-144.39;100.00
11001;BME280;5553;48.506;8.870;2023-01-25T18:39:46;61598.09;;;-144.39;100.00
11001;BME280;5553;48.506;8.870;2023-01-25T18:42:18;61598.09;;;-144.39;100.00
11001;BME280;5553;48.506;8.870;2023-01-25T18:44:47;61598.09;;;-144.39;100.00
11001;BME280;5553;48.506;8.870;2023-01-25T18:47:16;61598.09;;;-144.39;100.00
11001;BME280;5553;48.506;8.870;2023-01-25T18:49:45;61598.09;;;-144.39;100.00
11001;BME280;5553;48.506;8.870;2023-01-25T18:52:14;61598.09;;;-144.39;100.00
11001;BME280;5553;48.506;8.870;2023-01-25T18:54:43;61598.09;;;-144.39;100.00
11001;BME280;5553;48.506;8.870;2023-01-25T18:57:12;61598.09;;;-144.39;100.00
11001;BME280;5553;48.506;8.870;2023-01-25T18:59:43;61598.09;;;-144.39;100.00
11001;BME280;5553;48.506;8.870;2023-01-25T19:02:13;61598.09;;;-144.39;100.00
11001;BME280;5553;48.506;8.870;2023-01-25T19:04:42;61598.09;;;-144.39;100.00
11001;BME280;5553;48.506;8.870;2023-01-25T19:07:10;61598.09;;;-144.39;100.00
11001;BME280;5553;48.506;8.870;2023-01-25T19:09:38;61598.09;;;-144.39;100.00
11001;BME280;5553;48.506;8.870;2023-01-25T19:12:07;61598.09;;;-144.39;100.00
11001;BME280;5553;48.506;8.870;2023-01-25T19:14:36;61598.09;;;-144.39;100.00
11001;BME280;5553;48.506;8.870;2023-01-25T19:17:07;61598.09;;;-144.39;100.00
11001;BME280;5553;48.506;8.870;2023-01-25T19:19:35;61598.09;;;-144.39;100.00
11001;BME280;5553;48.506;8.870;2023-01-25T19:22:03;61598.09;;;-144.39;100.00
11001;BME280;5553;48.506;8.870;2023-01-25T19:24:32;61598.09;;;-144.39;100.00
11001;BME280;5553;48.506;8.870;2023-01-25T19:27:00;61598.09;;;-144.39;100.00
11001;BME280;5553;48.506;8.870;2023-01-25T19:29:29;61598.09;;;-144.39;100.00
11001;BME280;5553;48.506;8.870;2023-01-25T19:31:57;61598.09;;;-144.39;100.00
11001;BME280;5553;48.506;8.870;2023-01-25T19:34:28;61598.09;;;-144.39;100.00
11001;BME280;5553;48.506;8.870;2023-01-25T19:36:56;61598.09;;;-144.39;100.00